Inukjuak Airport
CYPH : now visible

Airfield :











YOU CAN JOIN US ON...

 
LOGIN :

Register | Disclaimer

   EN    FR    IT 

 









Legend :    VFR   Marginal VFR   IFR   Intensive IFR   Very Intensive IFR
Visi :
Ceiling :
>= 8 km
>= 3000ft
5 to 8 km
1000 to 3000 ft
1500m to 5 km
500 to 1000 ft
800 to 1500m
200 to 500 ft
< 800m
< 200 ft
Symbols :   Thunderstorms  Fog  Heavy snow  Heavy precipitations  Wind > 20 kt






- Airport Elevation : 83 ft
- IATA code : YPH


CYPH - Inukjuak

CURRENT METAR :
  • 080500Z AUTO 21015KT 9SM OVC003 09/09 A2952 RMK SLP000

EXPIRED METARs :
  • 080445Z AUTO 22016KT 6SM BR OVC003 09/09 A2952 RMK SLP999
  • 080433Z AUTO 21014G20KT 2SM BR OVC003 09/09 A2952 RMK SLP998
  • 080422Z AUTO 20015KT 1SM BR VV003 09/09 A2951 RMK SLP996
  • 080405Z AUTO 22014KT 3/4SM BR VV002 10/09 A2952 RMK SLP997
  • 080356Z AUTO 21014KT 1SM BR VV002 10/10 A2952 RMK SLP998
  • 080347Z AUTO 20012KT 3/4SM BR VV002 09/09 A2952 RMK SLP999
  • 080300Z AUTO 20016KT 3/4SM BR VV002 09/09 A2953 RMK SLP002

TAF TAF CYPH
Valid from the 08 at 00:00 until the 08 at 12:00 UTC


072340Z 0800/0812 24010KT 1/2SM -RA -DZ FG VV002
TEMPO 0800/0805 1SM BR OVC003
FM080500 23015KT 2SM -SHRA BR OVC006
TEMPO 0805/0811 6SM -SHRA BR OVC012
PROB30 0805/0811 1SM BR OVC003
FM081100 24015KT 6SM BR BKN008 OVC012 RMK FCST BASED ON AUTO OBS. NXT FCST BY 080600Z
CZUL FIR / North America



MET'MAP, your aeronautical weather chart ! - Copyright ORBIFLY December 2007 - Disclaimer

ORBIFLY MET'MAP TEAM :

Programming & Development : Alexandra Zaïnal
Concept & original design : Baudouin d'Aumeries
Assistance for programming : Marc-Olivier Méhu
Technical & hardware support : Manuel Goepfert

Contact : metmap@orbifly.com




SOURCES & CREDITS :

   NOAA       Earth
Advisory